Wetterdaten: aktuell Montag, 23.07.2018 04:00
Datum Zeit Temp. A. Luft Gew. Boden Gew. Boden A. Feuchte A. Luftdruck Regen Wind Richtung Richtung Sonnenschein ET UV Solar Taupunkt Windchill Windben Empfang
23.07.2018 04:00 17.3 C 16.1 C 20.0 C 18.9 C 93 % 1016.3 hPa 0.0 l/m 0.0 km/h (0 Bft) N-NW 335 0 min 0.000 mm 0.0 UV-I 0 W/m 16.2 C 17.3 C 0.0 km/h (0 Bft) 97.44 %
23.07.2018 03:00 17.5 C 16.7 C 20.0 C 18.9 C 93 % 1016.3 hPa 0.0 l/m 0.0 km/h (0 Bft) N-NW 335 0 min 0.000 mm 0.0 UV-I 0 W/m 16.4 C 17.5 C 0.0 km/h (0 Bft) 97.46 %
23.07.2018 02:00 17.8 C 16.7 C 20.0 C 18.9 C 92 % 1016.2 hPa 0.0 l/m 0.0 km/h (0 Bft) N-NW 335 0 min 0.000 mm 0.0 UV-I 0 W/m 16.5 C 17.8 C 0.0 km/h (0 Bft) 97.44 %
23.07.2018 01:00 18.4 C 17.2 C 20.0 C 18.9 C 91 % 1016.4 hPa 0.2 l/m 0.0 km/h (0 Bft) W-SW 252 0 min 0.000 mm 0.0 UV-I 0 W/m 16.9 C 18.4 C 0.0 km/h (0 Bft) 99.15 %
23.07.2018 00:00 18.8 C 17.8 C 20.0 C 18.9 C 90 % 1016.4 hPa 0.2 l/m 0.0 km/h (0 Bft) W-SW 252 0 min 0.000 mm 0.0 UV-I 0 W/m 17.1 C 18.8 C 0.0 km/h (0 Bft) 98.29 %
22.07.2018 23:00 19.2 C 18.3 C 20.0 C 18.9 C 89 % 1016.2 hPa 0.0 l/m 0.0 km/h (0 Bft) W-SW 252 0 min 0.000 mm 0.0 UV-I 0 W/m 17.3 C 19.2 C 1.6 km/h (1 Bft) 100.00 %
22.07.2018 22:00 19.3 C 19.4 C 20.0 C 18.9 C 88 % 1016.1 hPa 0.0 l/m 3.1 km/h (1 Bft) W-SW 253 0 min 0.025 mm 0.0 UV-I 0 W/m 17.3 C 19.3 C 6.4 km/h (2 Bft) 97.44 %
22.07.2018 21:00 19.9 C 20.6 C 20.0 C 18.9 C 85 % 1015.4 hPa 0.0 l/m 5.1 km/h (1 Bft) SW 230 0 min 0.025 mm 0.0 UV-I 0 W/m 17.3 C 19.9 C 11.3 km/h (2 Bft) 97.50 %
22.07.2018 20:00 20.9 C 22.2 C 20.0 C 18.9 C 82 % 1014.9 hPa 0.0 l/m 0.0 km/h (0 Bft) N-NW 338 0 min 0.025 mm 0.0 UV-I 35 W/m 17.7 C 20.9 C 0.0 km/h (0 Bft) 99.15 %
22.07.2018 19:00 21.9 C 25.0 C 20.0 C 18.9 C 78 % 1014.6 hPa 0.0 l/m 0.6 km/h (0 Bft) N-NW 340 35 min 0.127 mm 0.0 UV-I 57 W/m 17.9 C 21.9 C 3.2 km/h (1 Bft) 99.07 %
22.07.2018 18:00 21.6 C 25.6 C 20.0 C 18.9 C 80 % 1014.7 hPa 0.0 l/m 0.4 km/h (0 Bft) N-NO 26 60 min 0.153 mm 0.8 UV-I 167 W/m 18.0 C 21.6 C 3.2 km/h (1 Bft) 99.15 %
22.07.2018 17:00 20.6 C 24.4 C 20.0 C 18.9 C 84 % 1014.8 hPa 0.0 l/m 0.7 km/h (0 Bft) W 267 60 min 0.153 mm 1.1 UV-I 179 W/m 17.8 C 20.6 C 6.4 km/h (2 Bft) 99.15 %
22.07.2018 16:00 20.3 C 25.0 C 20.0 C 18.9 C 87 % 1014.8 hPa 0.2 l/m 2.5 km/h (1 Bft) NO 36 60 min 0.203 mm 1.8 UV-I 283 W/m 18.1 C 20.3 C 6.4 km/h (2 Bft) 94.87 %
22.07.2018 15:00 20.0 C 23.9 C 20.0 C 18.9 C 89 % 1014.7 hPa 0.0 l/m 4.5 km/h (1 Bft) N-NW 348 60 min 0.228 mm 2.7 UV-I 438 W/m 18.1 C 20.0 C 14.5 km/h (3 Bft) 97.44 %
22.07.2018 14:00 19.1 C 21.7 C 20.0 C 18.9 C 91 % 1014.7 hPa 0.4 l/m 2.9 km/h (1 Bft) N-NW 332 45 min 0.102 mm 1.5 UV-I 202 W/m 17.6 C 19.1 C 11.3 km/h (2 Bft) 97.46 %
22.07.2018 13:00 19.7 C 21.7 C 20.0 C 18.9 C 88 % 1014.7 hPa 0.0 l/m 4.4 km/h (1 Bft) O-NO 59 25 min 0.076 mm 0.6 UV-I 95 W/m 17.7 C 19.7 C 11.3 km/h (2 Bft) 98.29 %
22.07.2018 12:00 20.2 C 23.3 C 20.0 C 18.9 C 86 % 1014.5 hPa 1.6 l/m 0.0 km/h (0 Bft) W 281 35 min 0.127 mm 0.7 UV-I 84 W/m 17.8 C 20.2 C 0.0 km/h (0 Bft) 100.00 %
22.07.2018 11:00 19.5 C 21.1 C 20.0 C 18.9 C 94 % 1014.4 hPa 0.0 l/m 7.9 km/h (2 Bft) W-SW 238 50 min 0.153 mm 2.5 UV-I 339 W/m 18.5 C 18.9 C 12.9 km/h (3 Bft) 97.44 %
22.07.2018 10:00 18.4 C 18.9 C 20.0 C 18.9 C 96 % 1014.4 hPa 0.0 l/m 5.5 km/h (1 Bft) W 262 10 min 0.076 mm 1.1 UV-I 157 W/m 17.7 C 18.4 C 9.7 km/h (2 Bft) 98.20 %
22.07.2018 09:00 17.8 C 18.3 C 20.0 C 18.9 C 96 % 1014.3 hPa 0.0 l/m 4.6 km/h (1 Bft) W-SW 251 0 min 0.025 mm 0.0 UV-I 46 W/m 17.2 C 17.8 C 8.0 km/h (2 Bft) 99.15 %
22.07.2018 08:00 17.8 C 17.2 C 20.0 C 18.9 C 96 % 1014.0 hPa 0.0 l/m 4.7 km/h (1 Bft) W 267 0 min 0.051 mm 0.3 UV-I 95 W/m 17.2 C 17.8 C 8.0 km/h (2 Bft) 99.15 %
22.07.2018 07:00 17.2 C 16.1 C 20.0 C 18.9 C 95 % 1013.7 hPa 0.4 l/m 3.6 km/h (1 Bft) SW 233 0 min 0.000 mm 0.0 UV-I 39 W/m 16.4 C 17.2 C 8.0 km/h (2 Bft) 99.15 %
22.07.2018 06:00 17.1 C 16.1 C 20.0 C 18.9 C 95 % 1013.7 hPa 0.2 l/m 3.7 km/h (1 Bft) W-SW 250 0 min 0.000 mm 0.0 UV-I 0 W/m 16.3 C 17.1 C 6.4 km/h (2 Bft) 97.44 %
22.07.2018 05:00 17.1 C 16.1 C 20.0 C 18.9 C 95 % 1013.4 hPa 0.0 l/m 1.7 km/h (1 Bft) W 276 0 min 0.000 mm 0.0 UV-I 0 W/m 16.3 C 17.1 C 6.4 km/h (2 Bft) 97.44 %
_ Min-Zeit 05:00 05:00 05:00 05:00 18:45 05:00 - 12:00 - - - - - - 03:50 05:00 12:00 16:25
Minimum _ 17.1 C 16.1 C 20.0 C 18.9 C 76 % 1013.4 hPa - 0.0 km/h (0 Bft) - - - - - - 16.2 C 17.1 C 0.0 km/h (0 Bft) 92.98 %
_ Max-Zeit 18:50 17:40 05:00 05:00 07:05 23:25 11:55 10:50 - - 09:45 15:00 14:30 17:25 11:15 18:50 11:05 06:35
Maximum _ 22.0 C 25.6 C 20.0 C 18.9 C 96 % 1016.4 hPa 1.2 l/m 10.4 km/h
W-SW (2 Bft)
- - 5 min 0.228 mm 2.8 UV-I 508 W/m 18.9 C 22.0 C 19.3 km/h
W (3 Bft)
100.00 %
Durchschnitt _ 19.0 C 19.8 C 20.0 C 18.9 C 90 % 1014.9 hPa #3.2 l/m 2.4 km/h (1 Bft) W-SW - #0 min. #0.000 mm 0.0 UV-I 0 W/m 17.3 C 18.9 C 6.3 km/h (2 Bft) 98.46 %